createdAt,value
2017-06-20T00:00:44.573Z,57.79
2017-06-20T00:01:53.535Z,57.89
2017-06-20T00:03:02.506Z,58.09
2017-06-20T00:04:11.773Z,57.6
2017-06-20T00:05:20.733Z,57.79
2017-06-20T00:06:30.346Z,57.31
2017-06-20T00:07:40.779Z,57.38
2017-06-20T00:08:50.685Z,57.31
2017-06-20T00:10:00.057Z,57.38
2017-06-20T00:11:09.026Z,57.38
2017-06-20T00:12:18.015Z,57.21
2017-06-20T00:13:27.957Z,57.19
2017-06-20T00:14:36.921Z,57.29
2017-06-20T00:15:46.388Z,57.87
2017-06-20T00:16:55.779Z,57.67
2017-06-20T00:18:05.266Z,57.48
2017-06-20T00:19:14.229Z,57.87
2017-06-20T00:20:23.205Z,57.99
2017-06-20T00:21:32.848Z,58.06
2017-06-20T00:22:41.840Z,57.96
2017-06-20T00:23:51.723Z,57.57
2017-06-20T00:25:00.684Z,57.77
2017-06-20T00:26:09.739Z,57.96
2017-06-20T00:27:19.107Z,57.77
2017-06-20T00:28:28.158Z,57.77
2017-06-20T00:29:37.839Z,57.67
2017-06-20T00:30:48.718Z,57.77
2017-06-20T00:31:59.118Z,57.87
2017-06-20T00:33:08.329Z,57.77
2017-06-20T00:34:17.486Z,58.15
2017-06-20T00:35:26.565Z,57.77
2017-06-20T00:36:36.392Z,57.67
2017-06-20T00:37:45.393Z,58.45
2017-06-20T00:38:54.755Z,58.35
2017-06-20T00:40:05.187Z,58.35
2017-06-20T00:41:14.239Z,58.54
2017-06-20T00:42:23.522Z,58.45
2017-06-20T00:43:32.491Z,58.54
2017-06-20T00:44:41.751Z,58.35
2017-06-20T00:45:50.741Z,58.25
2017-06-20T00:46:59.708Z,58.15
2017-06-20T00:48:08.700Z,58.35
2017-06-20T00:49:17.663Z,58.25
2017-06-20T00:50:26.879Z,57.77
2017-06-20T00:51:35.851Z,57.67
2017-06-20T00:52:44.805Z,58.35
2017-06-20T00:53:53.763Z,58.45
2017-06-20T00:55:02.725Z,58.25
2017-06-20T00:56:11.990Z,58.54
2017-06-20T00:57:20.948Z,58.15
2017-06-20T00:58:29.911Z,57.77
2017-06-20T00:59:38.870Z,57.67
2017-06-20T01:00:47.835Z,57.96
2017-06-20T01:01:57.052Z,57.87
2017-06-20T01:03:06.010Z,57.96
2017-06-20T01:04:15.063Z,57.96
2017-06-20T01:05:24.027Z,57.77
2017-06-20T01:06:32.988Z,58.35
2017-06-20T01:07:42.248Z,58.06
2017-06-20T01:08:51.295Z,58.25
2017-06-20T01:10:00.341Z,58.35
2017-06-20T01:11:09.306Z,58.25
2017-06-20T01:12:18.262Z,58.25
2017-06-20T01:13:27.475Z,58.45
2017-06-20T01:14:36.435Z,58.25
2017-06-20T01:15:45.484Z,58.45
2017-06-20T01:16:54.444Z,58.54
2017-06-20T01:18:03.408Z,58.45
2017-06-20T01:19:12.619Z,58.35
2017-06-20T01:20:21.579Z,58.06
2017-06-20T01:21:30.542Z,58.15
2017-06-20T01:22:39.508Z,58.06
2017-06-20T01:23:48.507Z,58.32
2017-06-20T01:24:57.768Z,58.61
2017-06-20T01:26:06.726Z,58.7
2017-06-20T01:27:15.688Z,58.51
2017-06-20T01:28:24.646Z,58.7
2017-06-20T01:29:33.605Z,59.09
2017-06-20T01:30:42.818Z,58.8
2017-06-20T01:31:51.784Z,59.19
2017-06-20T01:33:00.745Z,59
2017-06-20T01:34:09.702Z,59
2017-06-20T01:35:18.658Z,58.7
2017-06-20T01:36:27.870Z,59.09
2017-06-20T01:37:36.862Z,58.7
2017-06-20T01:38:45.825Z,58.7
2017-06-20T01:39:54.784Z,58.9
2017-06-20T01:41:03.748Z,58.7
2017-06-20T01:42:13.344Z,58.42
2017-06-20T01:43:22.304Z,58.61
2017-06-20T01:44:31.261Z,59.09
2017-06-20T01:45:40.221Z,59.09
2017-06-20T01:46:49.181Z,58.8
2017-06-20T01:47:58.446Z,59.19
2017-06-20T01:49:07.410Z,59.19
2017-06-20T01:50:16.373Z,58.9
2017-06-20T01:51:25.426Z,58.9
2017-06-20T01:52:34.386Z,59
2017-06-20T01:53:43.642Z,59.28
2017-06-20T01:54:52.601Z,59.28
2017-06-20T01:56:01.565Z,58.9
2017-06-20T01:57:10.537Z,58.9
2017-06-20T01:58:19.496Z,59
2017-06-20T01:59:29.027Z,59.67
2017-06-20T02:00:38.314Z,59.77
2017-06-20T02:01:47.359Z,59.48
2017-06-20T02:02:56.318Z,59.19
2017-06-20T02:04:05.276Z,59.58
2017-06-20T02:05:14.628Z,59.86
2017-06-20T02:06:23.906Z,59.86
2017-06-20T02:07:32.867Z,59.58
2017-06-20T02:08:41.828Z,59.48
2017-06-20T02:09:50.784Z,59.86
2017-06-20T02:11:00.052Z,60.16
2017-06-20T02:12:09.340Z,59.96
2017-06-20T02:13:18.304Z,59.86
2017-06-20T02:14:27.266Z,59.86
2017-06-20T02:15:36.229Z,59.96
2017-06-20T02:16:45.487Z,60.06
2017-06-20T02:17:54.451Z,59.74
2017-06-20T02:19:03.413Z,59.58
2017-06-20T02:20:12.372Z,60.31
2017-06-20T02:21:21.331Z,60.13
2017-06-20T02:22:30.539Z,60.31
2017-06-20T02:23:39.498Z,59.86
2017-06-20T02:24:48.468Z,60.51
2017-06-20T02:25:57.431Z,60.83
2017-06-20T02:27:06.393Z,60.51
2017-06-20T02:28:15.607Z,60.89
2017-06-20T02:29:24.562Z,60.51
2017-06-20T02:30:33.526Z,60.8
2017-06-20T02:31:42.494Z,60.61
2017-06-20T02:32:51.459Z,60.51
2017-06-20T02:34:00.667Z,60.31
2017-06-20T02:35:09.629Z,60.51
2017-06-20T02:36:18.592Z,60.51
2017-06-20T02:37:27.553Z,60.61
2017-06-20T02:38:36.513Z,61.19
2017-06-20T02:39:45.776Z,61.19
2017-06-20T02:40:54.741Z,61.28
2017-06-20T02:42:03.706Z,61.09
2017-06-20T02:43:12.679Z,61.19
2017-06-20T02:44:21.643Z,61.38
2017-06-20T02:45:30.899Z,61.09
2017-06-20T02:46:39.859Z,61.38
2017-06-20T02:47:48.822Z,61.28
2017-06-20T02:48:58.113Z,61.19
2017-06-20T02:50:07.401Z,60.99
2017-06-20T02:51:16.985Z,60.89
2017-06-20T02:52:25.944Z,61.09
2017-06-20T02:53:34.911Z,60.8
2017-06-20T02:54:43.871Z,61.09
2017-06-20T02:55:52.830Z,60.99
2017-06-20T02:57:02.045Z,61.28
2017-06-20T02:58:11.006Z,60.99
2017-06-20T02:59:19.969Z,61.19
2017-06-20T03:00:28.927Z,61.28
2017-06-20T03:01:37.893Z,61.19
2017-06-20T03:02:47.104Z,61.09
2017-06-20T03:03:56.069Z,61.77
2017-06-20T03:05:05.031Z,61.57
2017-06-20T03:06:13.989Z,61.86
2017-06-20T03:07:22.951Z,61.67
2017-06-20T03:08:32.164Z,61.57
2017-06-20T03:09:41.124Z,62.25
2017-06-20T03:10:50.086Z,62.05
2017-06-20T03:11:59.039Z,62.05
2017-06-20T03:13:07.999Z,62.05
2017-06-20T03:14:17.291Z,62.34
2017-06-20T03:15:26.257Z,62.79
2017-06-20T03:16:35.223Z,62.7
2017-06-20T03:17:44.183Z,62.6
2017-06-20T03:18:53.144Z,62.41
2017-06-20T03:20:02.711Z,62.54
2017-06-20T03:21:12.082Z,62.44
2017-06-20T03:22:21.051Z,62.79
2017-06-20T03:23:30.018Z,63.12
2017-06-20T03:24:39.305Z,63.09
2017-06-20T03:25:48.553Z,63.6
2017-06-20T03:26:57.520Z,63.37
2017-06-20T03:28:06.802Z,63.47
2017-06-20T03:29:15.762Z,63.18
2017-06-20T03:30:24.722Z,64.15
2017-06-20T03:31:33.930Z,64.24
2017-06-20T03:32:42.889Z,64.24
2017-06-20T03:33:51.858Z,63.95
2017-06-20T03:35:00.819Z,64.05
2017-06-20T03:36:09.865Z,64.05
2017-06-20T03:37:19.129Z,64.15
2017-06-20T03:38:28.126Z,63.95
2017-06-20T03:39:37.086Z,64.34
2017-06-20T03:40:46.046Z,64.43
2017-06-20T03:41:55.004Z,64.43
2017-06-20T03:43:04.269Z,64.43
2017-06-20T03:44:13.235Z,64.34
2017-06-20T03:45:22.200Z,64.34
2017-06-20T03:46:31.162Z,64.24
2017-06-20T03:47:40.118Z,64.63
2017-06-20T03:48:49.381Z,64.63
2017-06-20T03:49:58.339Z,64.63
2017-06-20T03:51:07.299Z,65.11
2017-06-20T03:52:16.583Z,64.92
2017-06-20T03:53:25.543Z,64.92
2017-06-20T03:54:34.752Z,65.11
2017-06-20T03:55:43.716Z,64.92
2017-06-20T03:56:52.678Z,64.72
2017-06-20T03:58:01.636Z,64.92
2017-06-20T03:59:10.598Z,65.01
2017-06-20T04:00:19.945Z,65.11
2017-06-20T04:01:28.903Z,65.5
2017-06-20T04:02:37.861Z,65.59
2017-06-20T04:03:46.821Z,64.92
2017-06-20T04:04:55.778Z,65.59
2017-06-20T04:06:04.981Z,65.2
2017-06-20T04:07:13.937Z,65.69
2017-06-20T04:08:22.899Z,65.78
2017-06-20T04:09:31.855Z,65.69
2017-06-20T04:10:40.818Z,65.69
2017-06-20T04:11:50.075Z,65.78
2017-06-20T04:12:59.037Z,65.59
2017-06-20T04:14:07.998Z,65.5
2017-06-20T04:15:16.961Z,65.5
2017-06-20T04:16:25.925Z,65.5
2017-06-20T04:17:35.272Z,65.69
2017-06-20T04:18:44.559Z,65.78
2017-06-20T04:19:53.520Z,65.69
2017-06-20T04:21:02.477Z,66.11
2017-06-20T04:22:11.438Z,66.17
2017-06-20T04:23:20.703Z,65.91
2017-06-20T04:24:29.661Z,66.2
2017-06-20T04:25:38.945Z,66.69
2017-06-20T04:26:47.907Z,66.4
2017-06-20T04:27:56.865Z,66.2
2017-06-20T04:29:06.130Z,66.49
2017-06-20T04:30:15.098Z,66.69
2017-06-20T04:31:24.065Z,66.69
2017-06-20T04:32:33.029Z,66.69
2017-06-20T04:33:41.994Z,66.69
2017-06-20T04:34:51.254Z,66.69
2017-06-20T04:36:00.310Z,66.78
2017-06-20T04:37:09.268Z,66.88
2017-06-20T04:38:18.230Z,66.97
2017-06-20T04:39:27.198Z,66.49
2017-06-20T04:40:36.457Z,66.3
2017-06-20T04:41:45.424Z,66.69
2017-06-20T04:42:54.392Z,66.49
2017-06-20T04:44:03.358Z,66.59
2017-06-20T04:45:12.319Z,66.59
2017-06-20T04:46:21.617Z,66.49
2017-06-20T04:47:30.577Z,66.49
2017-06-20T04:48:39.541Z,66.72
2017-06-20T04:49:48.499Z,66.88
2017-06-20T04:50:57.463Z,66.78
2017-06-20T04:52:06.729Z,66.78
2017-06-20T04:53:15.692Z,66.88
2017-06-20T04:54:24.655Z,66.69
2017-06-20T04:55:33.622Z,66.59
2017-06-20T04:56:42.584Z,66.63
2017-06-20T04:57:51.803Z,66.72
2017-06-20T04:59:00.766Z,66.91
2017-06-20T05:00:09.726Z,67.07
2017-06-20T05:01:18.691Z,66.82
2017-06-20T05:02:27.657Z,67.3
2017-06-20T05:03:36.873Z,67.4
2017-06-20T05:04:45.834Z,67.4
2017-06-20T05:05:54.798Z,67.3
2017-06-20T05:07:03.765Z,67.11
2017-06-20T05:08:12.725Z,67.11
2017-06-20T05:09:21.941Z,66.82
2017-06-20T05:10:30.949Z,66.72
2017-06-20T05:11:39.921Z,66.91
2017-06-20T05:12:48.884Z,66.72
2017-06-20T05:13:57.846Z,66.63
2017-06-20T05:15:07.061Z,66.63
2017-06-20T05:16:16.018Z,66.91
2017-06-20T05:17:24.982Z,67.01
2017-06-20T05:18:33.943Z,66.63
2017-06-20T05:19:42.905Z,66.91
2017-06-20T05:20:52.119Z,66.53
2017-06-20T05:22:01.078Z,66.53
2017-06-20T05:23:10.040Z,66.94
2017-06-20T05:24:19.000Z,66.56
2017-06-20T05:25:27.959Z,66.36
2017-06-20T05:26:37.176Z,66.46
2017-06-20T05:27:46.309Z,66.56
2017-06-20T05:28:55.272Z,66.17
2017-06-20T05:30:04.236Z,66.08
2017-06-20T05:31:13.201Z,65.78
2017-06-20T05:32:22.458Z,65.3
2017-06-20T05:33:31.420Z,65.69
2017-06-20T05:34:40.380Z,65.4
2017-06-20T05:35:49.340Z,65.78
2017-06-20T05:36:58.307Z,65.59
2017-06-20T05:38:07.570Z,65.5
2017-06-20T05:39:16.527Z,65.82
2017-06-20T05:40:25.490Z,65.92
2017-06-20T05:41:34.450Z,65.63
2017-06-20T05:42:43.406Z,65.14
2017-06-20T05:43:52.613Z,65.43
2017-06-20T05:45:01.576Z,65.14
2017-06-20T05:46:10.543Z,65.24
2017-06-20T05:47:19.509Z,65.53
2017-06-20T05:48:28.466Z,65.05
2017-06-20T05:49:37.676Z,64.66
2017-06-20T05:50:46.641Z,65.05
2017-06-20T05:51:55.603Z,64.27
2017-06-20T05:53:04.567Z,64.18
2017-06-20T05:54:13.526Z,64.4
2017-06-20T05:55:22.734Z,64.21
2017-06-20T05:56:31.693Z,64.01
2017-06-20T05:57:40.656Z,64.21
2017-06-20T05:58:49.615Z,63.82
2017-06-20T05:59:58.574Z,63.53
2017-06-20T06:01:07.925Z,63.82
2017-06-20T06:02:16.900Z,63.63
2017-06-20T06:03:25.874Z,63.73
2017-06-20T06:04:35.394Z,63.82
2017-06-20T06:05:44.357Z,63.24
2017-06-20T06:06:53.619Z,63.73
2017-06-20T06:08:02.613Z,63.05
2017-06-20T06:09:11.664Z,63.14
2017-06-20T06:10:20.645Z,62.98
2017-06-20T06:11:29.616Z,62.69
2017-06-20T06:12:38.879Z,62.98
2017-06-20T06:13:47.877Z,62.69
2017-06-20T06:14:56.872Z,62.5
2017-06-20T06:16:05.831Z,62.98
2017-06-20T06:17:14.791Z,62.59
2017-06-20T06:18:24.044Z,62.5
2017-06-20T06:19:33.010Z,62.3
2017-06-20T06:20:42.056Z,62.4
2017-06-20T06:21:51.019Z,62.4
2017-06-20T06:23:00.192Z,61.53
2017-06-20T06:24:11.083Z,61.72
2017-06-20T06:25:20.184Z,61.92
2017-06-20T06:26:29.825Z,61.72
2017-06-20T06:27:38.792Z,62.01
2017-06-20T06:28:48.088Z,61.56
2017-06-20T06:29:57.302Z,61.27
2017-06-20T06:31:06.273Z,61.46
2017-06-20T06:32:15.236Z,61.36
2017-06-20T06:33:24.198Z,61.56
2017-06-20T06:34:33.160Z,60.98
2017-06-20T06:35:42.455Z,61.46
2017-06-20T06:36:51.411Z,61.27
2017-06-20T06:38:00.377Z,61.36
2017-06-20T06:39:09.342Z,61.46
2017-06-20T06:40:18.315Z,61.36
2017-06-20T06:41:27.584Z,61.56
2017-06-20T06:42:36.553Z,61.46
2017-06-20T06:43:45.600Z,61.18
2017-06-20T06:44:54.607Z,61.18
2017-06-20T06:46:03.653Z,61.18
2017-06-20T06:47:12.918Z,61.3
2017-06-20T06:48:21.881Z,61.01
2017-06-20T06:49:30.842Z,61.49
2017-06-20T06:50:39.895Z,60.78
2017-06-20T06:51:48.852Z,60.59
2017-06-20T06:52:58.120Z,60.62
2017-06-20T06:54:07.097Z,60.72
2017-06-20T06:55:16.060Z,60.52
2017-06-20T06:56:25.373Z,60.14
2017-06-20T06:57:34.342Z,60.72
2017-06-20T06:58:43.555Z,60.14
2017-06-20T06:59:52.552Z,60.14
2017-06-20T07:01:01.519Z,60.72
2017-06-20T07:02:10.808Z,59.94
2017-06-20T07:03:19.771Z,60.07
2017-06-20T07:04:29.030Z,60.36
2017-06-20T07:05:38.317Z,60.07
2017-06-20T07:06:47.294Z,59.97
2017-06-20T07:07:56.344Z,59.78
2017-06-20T07:09:05.304Z,59.1
2017-06-20T07:10:14.520Z,59.2
2017-06-20T07:11:23.571Z,58.62
2017-06-20T07:12:32.533Z,58.91
2017-06-20T07:13:41.500Z,58.81
2017-06-20T07:14:50.462Z,58.42
2017-06-20T07:16:00.103Z,57.84
2017-06-20T07:17:09.687Z,57.55
2017-06-20T07:18:18.974Z,57.45
2017-06-20T07:19:29.014Z,57.26
2017-06-20T07:20:38.936Z,57.17
2017-06-20T07:21:48.150Z,56.9
2017-06-20T07:22:57.119Z,57.09
2017-06-20T07:24:06.411Z,57.29
2017-06-20T07:25:15.379Z,57.19
2017-06-20T07:26:24.345Z,56.61
2017-06-20T07:27:33.609Z,56.61
2017-06-20T07:28:42.590Z,57.29
2017-06-20T07:29:51.560Z,56.61
2017-06-20T07:31:00.526Z,56.61
2017-06-20T07:32:09.495Z,56.81
2017-06-20T07:33:18.760Z,56.41
2017-06-20T07:34:27.737Z,56.23
2017-06-20T07:35:36.980Z,56.41
2017-06-20T07:36:46.184Z,56.13
2017-06-20T07:37:55.150Z,56.05
2017-06-20T07:39:04.417Z,56.05
2017-06-20T07:40:13.381Z,55.57
2017-06-20T07:41:22.343Z,55.08
2017-06-20T07:42:31.307Z,55.38
2017-06-20T07:43:40.598Z,55.47
2017-06-20T07:44:49.875Z,54.99
2017-06-20T07:45:59.053Z,54.99
2017-06-20T07:47:09.538Z,54.99
2017-06-20T07:48:18.498Z,54.99
2017-06-20T07:49:27.466Z,55.08
2017-06-20T07:50:36.679Z,54.11
2017-06-20T07:51:45.731Z,54.41
2017-06-20T07:52:55.342Z,54.72
2017-06-20T07:54:04.305Z,54.72
2017-06-20T07:55:13.269Z,54.53
2017-06-20T07:56:22.532Z,54.72
2017-06-20T07:57:31.801Z,54.53
2017-06-20T07:58:41.058Z,54.53
2017-06-20T07:59:50.017Z,54.53
2017-06-20T08:00:58.975Z,54.63
2017-06-20T08:02:08.188Z,54.63
2017-06-20T08:03:17.150Z,55.11
2017-06-20T08:04:26.114Z,54.24
2017-06-20T08:05:35.078Z,54.36
2017-06-20T08:06:44.148Z,54.66
2017-06-20T08:07:53.412Z,54.17
2017-06-20T08:09:02.377Z,54.27
2017-06-20T08:10:11.340Z,54.27
2017-06-20T08:11:20.303Z,53.97
2017-06-20T08:12:29.267Z,54.17
2017-06-20T08:13:38.535Z,53.59
2017-06-20T08:14:47.506Z,53.2
2017-06-20T08:15:56.476Z,53.2
2017-06-20T08:17:05.447Z,52.72
2017-06-20T08:18:14.417Z,52.72
2017-06-20T08:19:23.634Z,52.62
2017-06-20T08:20:32.597Z,52.35
2017-06-20T08:21:41.565Z,52.15
2017-06-20T08:22:50.530Z,52.25
2017-06-20T08:23:59.819Z,51.28
2017-06-20T08:25:09.034Z,51.57
2017-06-20T08:26:18.321Z,50.99
2017-06-20T08:27:27.287Z,50.12
2017-06-20T08:28:36.338Z,49.92
2017-06-20T08:29:45.303Z,49.82
2017-06-20T08:30:54.604Z,49.24
2017-06-20T08:32:03.576Z,49.07
2017-06-20T08:33:12.868Z,49.15
2017-06-20T08:34:21.833Z,48.68
2017-06-20T08:35:30.798Z,48.3
2017-06-20T08:36:40.070Z,48.49
2017-06-20T08:37:49.143Z,48.68
2017-06-20T08:38:58.426Z,48.49
2017-06-20T08:40:07.716Z,48.49
2017-06-20T08:41:16.684Z,47.91
2017-06-20T08:42:25.974Z,48.39
2017-06-20T08:43:34.939Z,47.42
2017-06-20T08:44:43.999Z,47.32
2017-06-20T08:45:52.971Z,47.61
2017-06-20T08:47:01.941Z,47.42
2017-06-20T08:48:11.213Z,47.52
2017-06-20T08:49:20.173Z,47.32
2017-06-20T08:50:29.227Z,47.23
2017-06-20T08:51:38.199Z,46.96
2017-06-20T08:52:47.165Z,46.96
2017-06-20T08:53:56.425Z,47.15
2017-06-20T08:55:05.400Z,47.05
2017-06-20T08:56:14.362Z,47.25
2017-06-20T08:57:23.327Z,46.28
2017-06-20T08:58:32.306Z,45.98
2017-06-20T08:59:41.579Z,46.96
2017-06-20T09:00:50.871Z,47.34
2017-06-20T09:01:59.837Z,47.25
2017-06-20T09:03:08.802Z,47.08
2017-06-20T09:04:17.762Z,47.27
2017-06-20T09:05:27.030Z,47.08
2017-06-20T09:06:35.996Z,47.54
2017-06-20T09:07:44.960Z,47.08
2017-06-20T09:08:53.921Z,47.37
2017-06-20T09:10:02.888Z,46.59
2017-06-20T09:11:12.108Z,46.5
2017-06-20T09:12:21.161Z,46.3
2017-06-20T09:13:30.128Z,46.78
2017-06-20T09:14:39.184Z,46.5
2017-06-20T09:15:48.484Z,46.59
2017-06-20T09:16:57.701Z,46.3
2017-06-20T09:18:06.667Z,46.11
2017-06-20T09:19:15.631Z,46.2
2017-06-20T09:20:24.601Z,47.08
2017-06-20T09:21:33.567Z,47.17
2017-06-20T09:22:42.785Z,47.17
2017-06-20T09:23:51.756Z,46.98
2017-06-20T09:25:00.726Z,46.69
2017-06-20T09:26:09.694Z,46.78
2017-06-20T09:27:18.658Z,46.78
2017-06-20T09:28:27.930Z,47.08
2017-06-20T09:29:36.895Z,46.78
2017-06-20T09:30:45.861Z,47.08
2017-06-20T09:31:54.831Z,46.88
2017-06-20T09:33:03.800Z,46.5
2017-06-20T09:34:13.066Z,46.59
2017-06-20T09:35:22.050Z,46.59
2017-06-20T09:36:31.067Z,46.2
2017-06-20T09:37:40.035Z,46.78
2017-06-20T09:38:49.021Z,47.08
2017-06-20T09:39:58.649Z,47.08
2017-06-20T09:41:07.656Z,46.2
2017-06-20T09:42:16.617Z,46.11
2017-06-20T09:43:25.580Z,46.2
2017-06-20T09:44:34.549Z,45.91
2017-06-20T09:45:43.819Z,45.62
2017-06-20T09:46:52.784Z,45.72
2017-06-20T09:48:01.752Z,45.14
2017-06-20T09:49:10.727Z,45.06
2017-06-20T09:50:19.693Z,44.96
2017-06-20T09:51:28.919Z,44.94
2017-06-20T09:52:37.887Z,45.04
2017-06-20T09:53:46.914Z,45.15
2017-06-20T09:54:55.881Z,44.76
2017-06-20T09:56:04.849Z,44.26
2017-06-20T09:57:14.150Z,44.16
2017-06-20T09:58:23.115Z,44.16
2017-06-20T09:59:32.168Z,44.35
2017-06-20T10:00:41.526Z,44.35
2017-06-20T10:01:50.927Z,44.35
2017-06-20T10:03:00.145Z,44.45
2017-06-20T10:04:09.135Z,44.65
2017-06-20T10:05:18.131Z,44.74
2017-06-20T10:06:27.198Z,45.23
2017-06-20T10:07:36.170Z,45.62
2017-06-20T10:08:45.512Z,44.74
2017-06-20T10:09:54.726Z,44.38
2017-06-20T10:11:03.759Z,44.38
2017-06-20T10:12:12.723Z,44.28
2017-06-20T10:13:21.741Z,44.06
2017-06-20T10:14:31.063Z,44.26
2017-06-20T10:15:40.029Z,43.77
2017-06-20T10:16:48.997Z,43.96
2017-06-20T10:17:58.057Z,43.89
2017-06-20T10:19:07.111Z,43.89
2017-06-20T10:20:16.332Z,44.18
2017-06-20T10:21:25.353Z,44.48
2017-06-20T10:22:34.317Z,44.86
2017-06-20T10:23:43.609Z,45.25
2017-06-20T10:24:52.574Z,45.45
2017-06-20T10:26:01.788Z,45.64
2017-06-20T10:27:10.760Z,45.74
2017-06-20T10:28:19.815Z,46.23
2017-06-20T10:29:28.815Z,46.5
2017-06-20T10:30:37.785Z,46.98
2017-06-20T10:31:47.144Z,47.27
2017-06-20T10:32:56.108Z,47.17
2017-06-20T10:34:05.162Z,47.37
2017-06-20T10:35:14.130Z,47.74
2017-06-20T10:36:23.095Z,47.74
2017-06-20T10:37:32.457Z,47.64
2017-06-20T10:38:41.658Z,47.44
2017-06-20T10:39:50.883Z,47.54
2017-06-20T10:41:00.213Z,47.54
2017-06-20T10:42:09.183Z,47.64
2017-06-20T10:43:18.495Z,47.64
2017-06-20T10:44:27.613Z,48.03
2017-06-20T10:45:36.865Z,47.93
2017-06-20T10:46:45.826Z,47.83
2017-06-20T10:47:54.936Z,48.32
2017-06-20T10:49:04.221Z,48.32
2017-06-20T10:50:13.493Z,48.22
2017-06-20T10:51:22.464Z,48.51
2017-06-20T10:52:31.663Z,48.32
2017-06-20T10:53:41.086Z,48.32
2017-06-20T10:54:50.577Z,47.64
2017-06-20T10:55:59.799Z,47.61
2017-06-20T10:57:08.870Z,48.2
2017-06-20T10:58:17.986Z,48.39
2017-06-20T10:59:27.062Z,47.93
2017-06-20T11:00:36.284Z,48.03
2017-06-20T11:01:45.520Z,48.41
2017-06-20T11:02:54.731Z,48.51
2017-06-20T11:04:03.826Z,48.71
2017-06-20T11:05:12.831Z,48.22
2017-06-20T11:06:22.168Z,48.41
2017-06-20T11:07:31.428Z,48.22
2017-06-20T11:08:40.392Z,48.41
2017-06-20T11:09:49.605Z,47.64
2017-06-20T11:10:58.694Z,47.71
2017-06-20T11:12:08.096Z,48
2017-06-20T11:13:17.090Z,47.61
2017-06-20T11:14:26.250Z,48.2
2017-06-20T11:15:35.469Z,48.2
2017-06-20T11:16:44.838Z,47.81
2017-06-20T11:17:54.162Z,48.1
2017-06-20T11:19:03.281Z,48
2017-06-20T11:20:12.288Z,48.22
2017-06-20T11:21:21.349Z,48.2
2017-06-20T11:22:30.401Z,48.1
2017-06-20T11:23:39.672Z,48.1
2017-06-20T11:24:48.636Z,48.1
2017-06-20T11:25:57.607Z,47.91
2017-06-20T11:27:06.571Z,48.39
2017-06-20T11:28:15.539Z,48.1
2017-06-20T11:29:24.920Z,48.1
2017-06-20T11:30:33.896Z,47.71
2017-06-20T11:31:42.867Z,47.81
2017-06-20T11:32:51.837Z,47.61
2017-06-20T11:34:00.810Z,48.3
2017-06-20T11:35:10.072Z,48
2017-06-20T11:36:19.038Z,48
2017-06-20T11:37:28.003Z,48.2
2017-06-20T11:38:36.975Z,47.61
2017-06-20T11:39:45.940Z,47.32
2017-06-20T11:40:55.207Z,47.44
2017-06-20T11:42:04.171Z,47.15
2017-06-20T11:43:13.140Z,47.05
2017-06-20T11:44:22.108Z,47.05
2017-06-20T11:45:31.152Z,47.44
2017-06-20T11:46:40.425Z,47.05
2017-06-20T11:47:49.490Z,47.05
2017-06-20T11:48:58.529Z,47.34
2017-06-20T11:50:07.695Z,47.54
2017-06-20T11:51:16.721Z,47.25
2017-06-20T11:52:26.130Z,47.05
2017-06-20T11:53:35.230Z,47.25
2017-06-20T11:54:44.389Z,46.77
2017-06-20T11:55:53.460Z,46.77
2017-06-20T11:57:02.572Z,46.28
2017-06-20T11:58:11.866Z,46.57
2017-06-20T11:59:20.959Z,46.57
2017-06-20T12:00:30.278Z,47.05
2017-06-20T12:01:39.359Z,46.94
2017-06-20T12:02:48.656Z,46.84
2017-06-20T12:03:57.918Z,46.74
2017-06-20T12:05:07.009Z,47.13
2017-06-20T12:06:16.033Z,46.74
2017-06-20T12:07:25.086Z,46.74
2017-06-20T12:08:34.052Z,46.74
2017-06-20T12:09:43.531Z,46.94
2017-06-20T12:10:52.522Z,46.35
2017-06-20T12:12:01.488Z,46.35
2017-06-20T12:13:10.502Z,46.45
2017-06-20T12:14:19.504Z,45.97
2017-06-20T12:15:29.031Z,45.97
2017-06-20T12:16:38.162Z,46.06
2017-06-20T12:17:47.320Z,45.77
2017-06-20T12:18:56.327Z,45.48
2017-06-20T12:20:05.296Z,44.99
2017-06-20T12:21:15.035Z,44.7
2017-06-20T12:22:24.234Z,44.6
2017-06-20T12:23:33.339Z,44.7
2017-06-20T12:24:42.315Z,44.79
2017-06-20T12:25:51.387Z,45.09
2017-06-20T12:27:00.734Z,44.82
2017-06-20T12:28:09.704Z,44.33
2017-06-20T12:29:19.021Z,44.14
2017-06-20T12:30:28.482Z,43.85
2017-06-20T12:31:37.565Z,43.75
2017-06-20T12:32:47.127Z,42.58
2017-06-20T12:33:56.639Z,42.78
2017-06-20T12:35:05.727Z,43.26
2017-06-20T12:36:14.885Z,42.58
2017-06-20T12:37:23.859Z,42.58
2017-06-20T12:38:33.522Z,42.87
2017-06-20T12:39:42.816Z,42.29
2017-06-20T12:40:52.303Z,42
2017-06-20T12:42:01.445Z,42.1
2017-06-20T12:43:10.561Z,41.8
2017-06-20T12:44:19.992Z,42.19
2017-06-20T12:45:28.962Z,41.9
2017-06-20T12:46:38.666Z,42.49
2017-06-20T12:47:47.861Z,42.49
2017-06-20T12:48:57.007Z,42.39
2017-06-20T12:50:06.331Z,42.1
2017-06-20T12:51:15.379Z,42.1
2017-06-20T12:52:24.347Z,41.32
2017-06-20T12:53:33.796Z,41.51
2017-06-20T12:54:43.410Z,42.1
2017-06-20T12:55:52.760Z,42.19
2017-06-20T12:57:01.827Z,41.61
2017-06-20T12:58:10.993Z,42.19
2017-06-20T12:59:20.138Z,42.19
2017-06-20T13:00:29.262Z,41.98
2017-06-20T13:01:38.588Z,42
2017-06-20T13:02:47.674Z,42
2017-06-20T13:03:57.220Z,42.1
2017-06-20T13:05:06.373Z,42.1
2017-06-20T13:06:15.475Z,42.19
2017-06-20T13:07:24.848Z,41.71
2017-06-20T13:08:33.817Z,41.61
2017-06-20T13:09:43.034Z,41.61
2017-06-20T13:10:52.411Z,42.1
2017-06-20T13:12:01.433Z,42.1
2017-06-20T13:13:10.980Z,42.49
2017-06-20T13:14:20.034Z,42.1
2017-06-20T13:15:29.132Z,42
2017-06-20T13:16:38.367Z,42.1
2017-06-20T13:17:47.557Z,42
2017-06-20T13:18:57.153Z,41.9
2017-06-20T13:20:06.450Z,42.19
2017-06-20T13:21:15.671Z,42.19
2017-06-20T13:22:24.762Z,42.19
2017-06-20T13:23:33.840Z,41.51
2017-06-20T13:24:43.345Z,41.71
2017-06-20T13:25:52.392Z,41.51
2017-06-20T13:27:01.366Z,41.71
2017-06-20T13:28:10.341Z,41.51
2017-06-20T13:29:19.576Z,41.51
2017-06-20T13:30:29.026Z,41.32
2017-06-20T13:31:37.993Z,41.51
2017-06-20T13:32:46.962Z,41.71
2017-06-20T13:33:56.216Z,41.71
2017-06-20T13:35:05.179Z,41.51
2017-06-20T13:36:14.602Z,41.61
2017-06-20T13:37:23.580Z,41.22
2017-06-20T13:38:32.548Z,41.13
2017-06-20T13:39:41.604Z,40.64
2017-06-20T13:40:50.959Z,41.03
2017-06-20T13:42:00.490Z,41.03
2017-06-20T13:43:09.457Z,41.13
2017-06-20T13:44:18.458Z,41.3
2017-06-20T13:45:27.658Z,40.64
2017-06-20T13:46:36.753Z,41.2
2017-06-20T13:47:46.033Z,41.69
2017-06-20T13:48:55.128Z,41.39
2017-06-20T13:50:04.099Z,41.39
2017-06-20T13:51:13.063Z,41.2
2017-06-20T13:52:22.125Z,41.01
2017-06-20T13:53:31.341Z,41.1
2017-06-20T13:54:40.310Z,40.81
2017-06-20T13:55:49.276Z,41.2
2017-06-20T13:56:58.241Z,41.2
2017-06-20T13:58:07.202Z,40.91
2017-06-20T13:59:16.420Z,41.13
2017-06-20T14:00:25.717Z,40.73
2017-06-20T14:01:34.698Z,39.96
2017-06-20T14:02:43.779Z,39.76
2017-06-20T14:03:52.785Z,39.75
2017-06-20T14:05:02.051Z,40.25
2017-06-20T14:06:11.244Z,40.15
2017-06-20T14:07:20.309Z,40.73
2017-06-20T14:08:29.577Z,41.03
2017-06-20T14:09:39.099Z,40.54
2017-06-20T14:10:48.327Z,40.73
2017-06-20T14:11:57.339Z,40.25
2017-06-20T14:13:06.494Z,39.08
2017-06-20T14:14:15.496Z,39.18
2017-06-20T14:15:24.645Z,39.37
2017-06-20T14:16:33.960Z,39.18
2017-06-20T14:17:42.995Z,39.67
2017-06-20T14:18:51.997Z,39.57
2017-06-20T14:20:00.980Z,40.06
2017-06-20T14:21:10.035Z,40.44
2017-06-20T14:22:19.259Z,40.64
2017-06-20T14:23:28.232Z,40.93
2017-06-20T14:24:37.204Z,40.83
2017-06-20T14:25:46.193Z,41.32
2017-06-20T14:26:55.160Z,41.51
2017-06-20T14:28:04.432Z,41.13
2017-06-20T14:29:13.404Z,41.13
2017-06-20T14:30:22.372Z,41.13
2017-06-20T14:31:31.335Z,41.42
2017-06-20T14:32:40.299Z,41.51
2017-06-20T14:33:49.564Z,41.51
2017-06-20T14:34:58.534Z,41.61
2017-06-20T14:36:07.505Z,42.1
2017-06-20T14:37:16.467Z,41.61
2017-06-20T14:38:25.441Z,41.71
2017-06-20T14:39:34.985Z,42.1
2017-06-20T14:40:43.956Z,42.29
2017-06-20T14:41:53.012Z,42.19
2017-06-20T14:43:01.978Z,42.27
2017-06-20T14:44:10.942Z,42.56
2017-06-20T14:45:20.153Z,42.58
2017-06-20T14:46:29.116Z,42.58
2017-06-20T14:47:38.125Z,42.49
2017-06-20T14:48:47.344Z,42.56
2017-06-20T14:49:56.353Z,42.78
2017-06-20T14:51:05.627Z,42.66
2017-06-20T14:52:14.923Z,42.36
2017-06-20T14:53:23.976Z,42.68
2017-06-20T14:54:32.941Z,42.58